Etusivu
METAR-TAF:

METAR-TAF

Lentoasemat :

Municipal

Tunica, Mississippi, Yhdysvallat

Leveyspiiri: 34-41-06N, Pituuspiiri: 090-20-52W, korkeus merenpinnasta: 59 m

Tämänhetkinen sää

Tämä raportti tehtiin 20 minuuttia sitten, kello 12.15 UTC
Tuuli 13 kn etelästä/kaakosta puuskistuen 20 kn:hen
Lämpötila 8°C
Kosteus 100%
Ilmanpaine 1010 hPa
Näkyvyys: 8.0 km
sadetta

METAR: KUTA 241215Z AUTO 16013G20KT 5SM RA 08/08 A2983 RMK AO2 P0005 TSNO

Aika: 06:35 (12:35 UTC)


TAF: puuttuu

Säähavainnot ja -ennusteet yli 4000 lentoasemalta (METAR- ja TAF-raportit).

Käytössä olevat sääasemat on merkitty karttaan keltaisilla ja punaisilla pisteillä.

Aseta hiiri pisteen päälle nähdäksesi sääaseman nimen.

Klikkaa sitten nähdäksesi säähavainnot ja -ennusteet.

Kartan vaihtaminen: klikkaa mustalla rastilla varustettuja vihreitä pisteitä, niin voit zoomata sisään; viivalla varustettua vihreää pistettä, niin voit zoomata ulos tai vihreitä nuolia, niin pääset viereisille kartoille.


METAR-TAF: